Fri Langesund — ZDKQ8 — position and weather

sailwx.info

Track history (hours):
 
Tides and Currents Weather Stations Pressure Air Temp Water Temp Dewpoint Dewpoint Depression Visibility Wind Speed Wind Dir Waves Ship Positions

Fri Langesund

Last reported at 2014-Dec-19 21:28 UTC. Time now 2014-Dec-19 22:47 UTC.
Position N 50°11' W 003°00'.

Length 90 m; draft 5.8 m.

Type: Cargo ship. MMSI: 236111779.

Date/timePositionNaut miles runAvg speedWind from/ knotsBaromVisibWave heightAir tempDewpointWater temp
2014-Dec-19 21:28N 50°11' W 003°00'98 8.0
2014-Dec-19 09:13N 50°29' W 000°30'15 4.0
2014-Dec-19 05:23N 50°32' W 000°06'2 2.5
2014-Dec-19 04:31N 50°32' W 000°03'3 3.0
2014-Dec-19 03:33N 50°33' E 000°02'5 4.2
2014-Dec-19 02:24N 50°34' E 000°09'5 5.0
2014-Dec-19 01:28N 50°35' E 000°16'5 5.1
2014-Dec-19 00:34N 50°37' E 000°23'6 5.5
2014-Dec-18 23:27N 50°39' E 000°32'5 5.8
2014-Dec-18 22:33N 50°41' E 000°39'6 5.6
2014-Dec-18 21:33N 50°44' E 000°46'5 5.1
2014-Dec-18 20:33N 50°47' E 000°53'5 4.7
2014-Dec-18 19:25N 50°50' E 001°00'4 4.5
2014-Dec-18 18:26N 50°53' E 001°06'5 5.2
2014-Dec-18 17:33N 50°56' E 001°11'6 6.1
2014-Dec-18 16:33N 50°59' E 001°19'7 6.6
2014-Dec-18 15:33N 51°04' E 001°27'7 7.0
2014-Dec-18 14:34N 51°08' E 001°35'7 6.9
2014-Dec-18 13:33N 51°13' E 001°43'7 6.6
2014-Dec-18 12:33N 51°18' E 001°50'7 6.8
2014-Dec-18 11:33N 51°24' E 001°56'7 7.1
2014-Dec-18 10:34N 51°30' E 002°02'7 6.9
2014-Dec-18 09:34N 51°35' E 002°10'8 7.6
2014-Dec-18 08:33N 51°41' E 002°18'78 9.5
2014-Dec-18 00:21N 52°42' E 003°36'6 8.3
2014-Dec-17 23:33N 52°47' E 003°43'8 8.2
2014-Dec-17 22:33N 52°53' E 003°52'22 9.0
2014-Dec-17 20:08N 53°08' E 004°18'17 9.4
2014-Dec-17 18:17N 53°23' E 004°33'21 7.8
2014-Dec-17 15:33N 53°34' E 005°03'8 7.6
2014-Dec-17 14:33N 53°37' E 005°15'7 7.5
2014-Dec-17 13:33N 53°39' E 005°27'8 7.6
2014-Dec-17 12:33N 53°42' E 005°39'8 8.0
2014-Dec-17 11:33N 53°44' E 005°52'8 8.4
2014-Dec-17 10:33N 53°47' E 006°05'51 8.6
2014-Dec-17 04:33N 53°60' E 007°30'7 7.3
2014-Dec-17 03:33N 54°01' E 007°42'7 7.1
2014-Dec-17 02:33N 54°02' E 007°54'7 7.4
2014-Dec-17 01:34N 54°01' E 008°06'8 8.1
2014-Dec-17 00:33N 53°60' E 008°20'1110.8
2014-Dec-16 23:34N 53°57' E 008°38'6 6.0
2014-Dec-16 22:31N 53°52' E 008°44'0 0.1
2014-Dec-16 21:34N 53°52' E 008°44'7 6.7
2014-Dec-16 20:33N 53°51' E 008°55'8 7.9
2014-Dec-16 19:33N 53°53' E 009°08'1 1.1
2014-Dec-16 18:33N 53°54' E 009°09'4 3.9
2014-Dec-16 17:33N 53°57' E 009°14'5 5.5
2014-Dec-16 16:33N 54°02' E 009°18'7 7.2
2014-Dec-16 15:33N 54°09' E 009°21'9 7.3
2014-Dec-16 14:17N 54°13' E 009°35'7 7.1
2014-Dec-16 13:18N 54°18' E 009°43'6 8.0
2014-Dec-16 12:33N 54°22' E 009°51'8 7.7
2014-Dec-16 11:33N 54°22' E 010°04'3 3.5
2014-Dec-16 10:33N 54°22' E 010°10'9 9.0
2014-Dec-16 09:33N 54°30' E 010°18'8 8.3
2014-Dec-16 08:33N 54°34' E 010°31'9 9.2
2014-Dec-16 07:33N 54°35' E 010°47'29 8.5
2014-Dec-16 04:09N 54°30' E 011°36'7 9.1
2014-Dec-16 03:25N 54°27' E 011°46'8 9.1
2014-Dec-16 02:33N 54°27' E 012°00'8 8.1
2014-Dec-16 01:33N 54°31' E 012°12'93 8.4
2014-Dec-15 14:29N 54°41' E 014°51'118 8.8
2014-Dec-15 01:04N 55°06' E 018°12'5 9.1
2014-Dec-15 00:33N 55°08' E 018°19'9 9.1
2014-Dec-14 23:33N 55°11' E 018°34'9 9.1
2014-Dec-14 22:33N 55°15' E 018°49'11 9.3
2014-Dec-14 21:23N 55°19' E 019°07'29 0.6
2014-Dec-12 18:20N 55°07' E 018°21'810.1
2014-Dec-12 17:33N 55°04' E 018°09'132 9.9
2014-Dec-12 04:13N 54°09' E 014°42'710.0
2014-Dec-12 03:33N 54°06' E 014°32'1010.0
2014-Dec-12 02:33N 54°01' E 014°18'8 7.9
2014-Dec-12 01:33N 53°53' E 014°16'8 8.3
2014-Dec-12 00:33N 53°46' E 014°24'1110.8
2014-Dec-11 23:33N 53°37' E 014°35'9 9.0
2014-Dec-11 22:33N 53°28' E 014°36'4 4.1
2014-Dec-11 21:33N 53°24' E 014°37'0 0.0
2014-Dec-11 20:33N 53°24' E 014°37'0 0.0
2014-Dec-11 19:33N 53°24' E 014°37'0 0.0
2014-Dec-11 18:33N 53°24' E 014°37'0 0.0
2014-Dec-11 17:33N 53°24' E 014°37'0 0.0
2014-Dec-11 16:33N 53°24' E 014°37'0 0.0
2014-Dec-11 15:33N 53°24' E 014°37'0 0.0
2014-Dec-11 14:33N 53°24' E 014°37'0 0.0
2014-Dec-11 13:33N 53°24' E 014°37'0 0.0
2014-Dec-11 12:33N 53°24' E 014°37'0 0.0
2014-Dec-11 11:33N 53°24' E 014°37'0 0.0
2014-Dec-11 10:33N 53°24' E 014°37'0 0.0
2014-Dec-11 09:33N 53°24' E 014°37'0 0.0
2014-Dec-11 08:33N 53°24' E 014°37'0 0.0
2014-Dec-11 07:33N 53°24' E 014°37'0 0.0
2014-Dec-11 06:33N 53°24' E 014°37'0 0.0
2014-Dec-11 05:33N 53°24' E 014°37'0 0.0
2014-Dec-11 04:33N 53°24' E 014°37'0 0.3
2014-Dec-11 03:33N 53°25' E 014°37'7 7.2
2014-Dec-11 02:33N 53°32' E 014°38'9 9.0
2014-Dec-11 01:33N 53°40' E 014°32'10 9.7
2014-Dec-11 00:34N 53°48' E 014°22'8 7.6
2014-Dec-10 23:33N 53°54' E 014°16'9 8.7
2014-Dec-10 22:33N 54°03' E 014°13'1010.0
2014-Dec-10 21:33N 54°12' E 014°08'64 8.6
2014-Dec-10 14:10N 54°38' E 012°27'1710.6
2014-Dec-10 12:33N 54°25' E 012°08'1111.1
2014-Dec-10 11:33N 54°25' E 011°49'3210.8
2014-Dec-10 08:33N 54°34' E 010°56'1110.5
2014-Dec-10 07:33N 54°33' E 010°37'1110.5
2014-Dec-10 06:33N 54°30' E 010°20'10 9.9
2014-Dec-10 05:33N 54°22' E 010°10'3 2.5
2014-Dec-10 04:33N 54°22' E 010°06'8 7.7
2014-Dec-10 03:33N 54°21' E 009°53'7 6.7
2014-Dec-10 02:33N 54°18' E 009°43'8 7.5
2014-Dec-10 01:33N 54°13' E 009°34'22 6.9
2014-Dec-09 22:24N 53°55' E 009°12'3 3.0
2014-Dec-09 21:33N 53°54' E 009°09'  
Track history (hours):
 
Tides and Currents Weather Stations Pressure Air Temp Water Temp Dewpoint Dewpoint Depression Visibility Wind Speed Wind Dir Waves Ship Positions

Fri Langesund

Last reported at 2014-Dec-19 21:28 UTC. Time now 2014-Dec-19 22:47 UTC.
Position N 50°11' W 003°00'.

Length 90 m; draft 5.8 m.

Type: Cargo ship. MMSI: 236111779.

Date/timePositionNaut miles runAvg speedWind from/ knotsBaromVisibWave heightAir tempDewpointWater temp
2014-Dec-19 21:28N 50°11' W 003°00'98 8.0
2014-Dec-19 09:13N 50°29' W 000°30'15 4.0
2014-Dec-19 05:23N 50°32' W 000°06'2 2.5
2014-Dec-19 04:31N 50°32' W 000°03'3 3.0
2014-Dec-19 03:33N 50°33' E 000°02'5 4.2
2014-Dec-19 02:24N 50°34' E 000°09'5 5.0
2014-Dec-19 01:28N 50°35' E 000°16'5 5.1
2014-Dec-19 00:34N 50°37' E 000°23'6 5.5
2014-Dec-18 23:27N 50°39' E 000°32'5 5.8
2014-Dec-18 22:33N 50°41' E 000°39'6 5.6
2014-Dec-18 21:33N 50°44' E 000°46'5 5.1
2014-Dec-18 20:33N 50°47' E 000°53'5 4.7
2014-Dec-18 19:25N 50°50' E 001°00'4 4.5
2014-Dec-18 18:26N 50°53' E 001°06'5 5.2
2014-Dec-18 17:33N 50°56' E 001°11'6 6.1
2014-Dec-18 16:33N 50°59' E 001°19'7 6.6
2014-Dec-18 15:33N 51°04' E 001°27'7 7.0
2014-Dec-18 14:34N 51°08' E 001°35'7 6.9
2014-Dec-18 13:33N 51°13' E 001°43'7 6.6
2014-Dec-18 12:33N 51°18' E 001°50'7 6.8
2014-Dec-18 11:33N 51°24' E 001°56'7 7.1
2014-Dec-18 10:34N 51°30' E 002°02'7 6.9
2014-Dec-18 09:34N 51°35' E 002°10'8 7.6
2014-Dec-18 08:33N 51°41' E 002°18'78 9.5
2014-Dec-18 00:21N 52°42' E 003°36'6 8.3
2014-Dec-17 23:33N 52°47' E 003°43'8 8.2
2014-Dec-17 22:33N 52°53' E 003°52'22 9.0
2014-Dec-17 20:08N 53°08' E 004°18'17 9.4
2014-Dec-17 18:17N 53°23' E 004°33'21 7.8
2014-Dec-17 15:33N 53°34' E 005°03'8 7.6
2014-Dec-17 14:33N 53°37' E 005°15'7 7.5
2014-Dec-17 13:33N 53°39' E 005°27'8 7.6
2014-Dec-17 12:33N 53°42' E 005°39'8 8.0
2014-Dec-17 11:33N 53°44' E 005°52'8 8.4
2014-Dec-17 10:33N 53°47' E 006°05'51 8.6
2014-Dec-17 04:33N 53°60' E 007°30'7 7.3
2014-Dec-17 03:33N 54°01' E 007°42'7 7.1
2014-Dec-17 02:33N 54°02' E 007°54'7 7.4
2014-Dec-17 01:34N 54°01' E 008°06'8 8.1
2014-Dec-17 00:33N 53°60' E 008°20'1110.8
2014-Dec-16 23:34N 53°57' E 008°38'6 6.0
2014-Dec-16 22:31N 53°52' E 008°44'0 0.1
2014-Dec-16 21:34N 53°52' E 008°44'7 6.7
2014-Dec-16 20:33N 53°51' E 008°55'8 7.9
2014-Dec-16 19:33N 53°53' E 009°08'1 1.1
2014-Dec-16 18:33N 53°54' E 009°09'4 3.9
2014-Dec-16 17:33N 53°57' E 009°14'5 5.5
2014-Dec-16 16:33N 54°02' E 009°18'7 7.2
2014-Dec-16 15:33N 54°09' E 009°21'9 7.3
2014-Dec-16 14:17N 54°13' E 009°35'7 7.1
2014-Dec-16 13:18N 54°18' E 009°43'6 8.0
2014-Dec-16 12:33N 54°22' E 009°51'8 7.7
2014-Dec-16 11:33N 54°22' E 010°04'3 3.5
2014-Dec-16 10:33N 54°22' E 010°10'9 9.0
2014-Dec-16 09:33N 54°30' E 010°18'8 8.3
2014-Dec-16 08:33N 54°34' E 010°31'9 9.2
2014-Dec-16 07:33N 54°35' E 010°47'29 8.5
2014-Dec-16 04:09N 54°30' E 011°36'7 9.1
2014-Dec-16 03:25N 54°27' E 011°46'8 9.1
2014-Dec-16 02:33N 54°27' E 012°00'8 8.1
2014-Dec-16 01:33N 54°31' E 012°12'93 8.4
2014-Dec-15 14:29N 54°41' E 014°51'118 8.8
2014-Dec-15 01:04N 55°06' E 018°12'5 9.1
2014-Dec-15 00:33N 55°08' E 018°19'9 9.1
2014-Dec-14 23:33N 55°11' E 018°34'9 9.1
2014-Dec-14 22:33N 55°15' E 018°49'11 9.3
2014-Dec-14 21:23N 55°19' E 019°07'29 0.6
2014-Dec-12 18:20N 55°07' E 018°21'810.1
2014-Dec-12 17:33N 55°04' E 018°09'132 9.9
2014-Dec-12 04:13N 54°09' E 014°42'710.0
2014-Dec-12 03:33N 54°06' E 014°32'1010.0
2014-Dec-12 02:33N 54°01' E 014°18'8 7.9
2014-Dec-12 01:33N 53°53' E 014°16'8 8.3
2014-Dec-12 00:33N 53°46' E 014°24'1110.8
2014-Dec-11 23:33N 53°37' E 014°35'9 9.0
2014-Dec-11 22:33N 53°28' E 014°36'4 4.1
2014-Dec-11 21:33N 53°24' E 014°37'0 0.0
2014-Dec-11 20:33N 53°24' E 014°37'0 0.0
2014-Dec-11 19:33N 53°24' E 014°37'0 0.0
2014-Dec-11 18:33N 53°24' E 014°37'0 0.0
2014-Dec-11 17:33N 53°24' E 014°37'0 0.0
2014-Dec-11 16:33N 53°24' E 014°37'0 0.0
2014-Dec-11 15:33N 53°24' E 014°37'0 0.0
2014-Dec-11 14:33N 53°24' E 014°37'0 0.0
2014-Dec-11 13:33N 53°24' E 014°37'0 0.0
2014-Dec-11 12:33N 53°24' E 014°37'0 0.0
2014-Dec-11 11:33N 53°24' E 014°37'0 0.0
2014-Dec-11 10:33N 53°24' E 014°37'0 0.0
2014-Dec-11 09:33N 53°24' E 014°37'0 0.0
2014-Dec-11 08:33N 53°24' E 014°37'0 0.0
2014-Dec-11 07:33N 53°24' E 014°37'0 0.0
2014-Dec-11 06:33N 53°24' E 014°37'0 0.0
2014-Dec-11 05:33N 53°24' E 014°37'0 0.0
2014-Dec-11 04:33N 53°24' E 014°37'0 0.3
2014-Dec-11 03:33N 53°25' E 014°37'7 7.2
2014-Dec-11 02:33N 53°32' E 014°38'9 9.0
2014-Dec-11 01:33N 53°40' E 014°32'10 9.7
2014-Dec-11 00:34N 53°48' E 014°22'8 7.6
2014-Dec-10 23:33N 53°54' E 014°16'9 8.7
2014-Dec-10 22:33N 54°03' E 014°13'1010.0
2014-Dec-10 21:33N 54°12' E 014°08'64 8.6
2014-Dec-10 14:10N 54°38' E 012°27'1710.6
2014-Dec-10 12:33N 54°25' E 012°08'1111.1
2014-Dec-10 11:33N 54°25' E 011°49'3210.8
2014-Dec-10 08:33N 54°34' E 010°56'1110.5
2014-Dec-10 07:33N 54°33' E 010°37'1110.5
2014-Dec-10 06:33N 54°30' E 010°20'10 9.9
2014-Dec-10 05:33N 54°22' E 010°10'3 2.5
2014-Dec-10 04:33N 54°22' E 010°06'8 7.7
2014-Dec-10 03:33N 54°21' E 009°53'7 6.7
2014-Dec-10 02:33N 54°18' E 009°43'8 7.5
2014-Dec-10 01:33N 54°13' E 009°34'22 6.9
2014-Dec-09 22:24N 53°55' E 009°12'3 3.0
2014-Dec-09 21:33N 53°54' E 009°09'  

Dump ship's entire track history